Time;durP1;ratioP1;P1;durP2;ratioP2;P2;SDS_P1;SDS_P2;PMS_P1;PMS_P2;Temp;Humidity;BMP_temperature;BMP_pressure;BME280_temperature;BME280_humidity;BME280_pressure;Samples;Min_cycle;Max_cycle;Signal;HPM_P1;HPM_P2
2022/04/19 00:00:37;;;;;;;10.43;6.93;;;10.30;99.90;;;;;;5175685;27;20386;-64
2022/04/19 00:03:07;;;;;;;8.75;6.93;;;11.30;99.90;;;;;;5175631;27;20049;-64
2022/04/19 00:05:34;;;;;;;10.98;7.57;;;10.10;99.90;;;;;;5175558;27;20128;-65
2022/04/19 00:08:00;;;;;;;;;;;10.50;99.90;;;;;;5175991;27;20042;-65
2022/04/19 00:10:28;;;;;;;10.88;7.00;;;11.10;99.90;;;;;;5175476;27;20456;-65
2022/04/19 00:12:59;;;;;;;12.55;7.95;;;11.60;99.90;;;;;;5175512;27;20133;-64
2022/04/19 00:15:27;;;;;;;11.00;7.30;;;10.20;99.90;;;;;;5175455;27;20086;-64
2022/04/19 00:17:54;;;;;;;10.43;7.63;;;10.20;99.90;;;;;;5175776;27;20494;-64
2022/04/19 00:20:21;;;;;;;8.70;6.60;;;10.60;99.90;;;;;;5175414;27;20394;-65
2022/04/19 00:22:49;;;;;;;9.63;7.00;;;10.00;99.90;;;;;;5156940;27;20103;-65
2022/04/19 00:25:16;;;;;;;10.40;6.90;;;11.40;99.90;;;;;;5175290;27;20042;-65
2022/04/19 00:27:42;;;;;;;11.23;7.05;;;10.10;99.90;;;;;;5174971;27;20508;-65
2022/04/19 00:30:08;;;;;;;10.13;7.07;;;11.10;99.90;;;;;;5174869;27;20046;-65
2022/04/19 00:32:34;;;;;;;11.05;7.38;;;10.10;99.90;;;;;;5175231;27;20042;-64
2022/04/19 00:35:01;;;;;;;13.13;7.35;;;10.00;99.90;;;;;;5175272;27;20046;-65
2022/04/19 00:37:27;;;;;;;9.18;6.60;;;9.80;99.90;;;;;;5156669;27;20054;-65
2022/04/19 00:39:53;;;;;;;12.02;7.30;;;9.70;99.90;;;;;;5175223;27;20065;-64
2022/04/19 00:42:19;;;;;;;10.05;7.28;;;11.30;99.90;;;;;;5156570;27;20350;-65
2022/04/19 00:44:44;;;;;;;10.65;7.55;;;9.90;99.90;;;;;;5175136;27;20042;-64
2022/04/19 00:47:11;;;;;;;14.43;8.10;;;10.40;99.90;;;;;;5175244;27;20057;-65
2022/04/19 00:49:39;;;;;;;12.60;7.47;;;10.00;99.90;;;;;;5175068;27;20042;-65
2022/04/19 00:52:06;;;;;;;10.18;7.25;;;9.60;99.90;;;;;;5178124;27;20057;-67
2022/04/19 00:54:32;;;;;;;11.75;7.28;;;9.90;99.90;;;;;;5179298;27;20042;-65
2022/04/19 00:56:59;;;;;;;11.60;7.60;;;10.00;99.90;;;;;;5179265;27;20042;-64
2022/04/19 00:59:25;;;;;;;12.07;7.10;;;10.00;99.90;;;;;;5178839;27;20494;-65
2022/04/19 01:01:51;;;;;;;12.13;7.13;;;9.80;99.90;;;;;;5179135;27;20057;-66
2022/04/19 01:04:17;;;;;;;12.23;7.65;;;9.50;99.90;;;;;;5160513;27;20061;-65
2022/04/19 01:06:43;;;;;;;12.02;7.60;;;9.50;99.90;;;;;;5179044;27;20042;-65
2022/04/19 01:09:09;;;;;;;;;;;10.70;99.90;;;;;;5179355;27;20038;-65
2022/04/19 01:14:23;;;;;;;12.32;7.15;;;9.60;99.90;;;;;;5178954;27;20530;-65
2022/04/19 01:16:49;;;;;;;11.70;7.45;;;9.70;99.90;;;;;;5178553;27;20434;-65
2022/04/19 01:19:15;;;;;;;13.38;7.72;;;10.20;99.90;;;;;;5178547;27;20083;-64
2022/04/19 01:21:51;;;;;;;12.55;7.80;;;9.60;99.90;;;;;;5160257;27;20046;-64
2022/04/19 01:24:18;;;;;;;11.70;7.77;;;9.40;99.90;;;;;;5178830;27;20434;-64
2022/04/19 01:26:45;;;;;;;13.13;7.60;;;10.40;99.90;;;;;;5178646;27;20762;-65
2022/04/19 01:29:11;;;;;;;11.27;7.10;;;9.30;99.90;;;;;;5178592;27;20046;-65
2022/04/19 01:31:38;;;;;;;;;;;9.80;99.90;;;;;;5179101;27;20107;-65
2022/04/19 01:34:04;;;;;;;11.70;7.60;;;10.30;99.90;;;;;;5178538;27;20009;-65
2022/04/19 01:36:29;;;;;;;13.68;8.43;;;9.30;99.90;;;;;;5178422;27;20129;-65
2022/04/19 01:38:55;;;;;;;9.73;6.97;;;9.20;99.90;;;;;;5178435;27;20133;-65
2022/04/19 01:41:21;;;;;;;12.68;7.88;;;10.10;99.90;;;;;;5178416;27;20050;-65
2022/04/19 01:43:47;;;;;;;12.13;7.88;;;9.10;99.90;;;;;;5178063;27;20046;-65
2022/04/19 01:46:15;;;;;;;11.93;7.78;;;9.40;99.90;;;;;;5178359;27;20042;-65
2022/04/19 01:48:40;;;;;;;13.30;7.75;;;9.40;99.90;;;;;;5178539;27;20042;-65
2022/04/19 01:51:06;;;;;;;12.25;7.60;;;10.20;99.90;;;;;;5178221;27;20094;-66
2022/04/19 01:53:32;;;;;;;10.40;7.55;;;8.90;99.90;;;;;;5178184;27;20054;-65
2022/04/19 01:55:58;;;;;;;11.48;8.48;;;9.40;99.90;;;;;;5178179;27;20507;-66
2022/04/19 01:58:23;;;;;;;14.10;8.25;;;8.90;99.90;;;;;;5178039;27;20042;-65
2022/04/19 02:00:49;;;;;;;14.32;8.18;;;9.10;99.90;;;;;;5178023;27;20082;-65
2022/04/19 02:03:16;;;;;;;13.82;8.07;;;9.00;99.90;;;;;;5177491;27;20128;-65
2022/04/19 02:05:42;;;;;;;12.18;8.00;;;9.10;99.90;;;;;;5177862;27;20499;-66
2022/04/19 02:08:08;;;;;;;14.35;8.27;;;9.20;99.90;;;;;;5177554;27;20478;-65
2022/04/19 02:10:33;;;;;;;10.57;7.65;;;8.80;99.90;;;;;;5177436;27;20045;-64
2022/04/19 02:12:59;;;;;;;14.10;8.75;;;9.10;99.90;;;;;;5178012;27;20049;-65
2022/04/19 02:15:25;;;;;;;14.73;7.82;;;10.10;99.90;;;;;;5177392;27;20046;-65
2022/04/19 02:17:50;;;;;;;11.18;7.95;;;9.60;99.90;;;;;;5158722;27;20129;-65
2022/04/19 02:20:17;;;;;;;13.38;7.63;;;9.00;99.90;;;;;;5177630;27;20042;-66
2022/04/19 02:22:44;;;;;;;11.13;7.90;;;8.70;99.90;;;;;;5177288;27;20516;-65
2022/04/19 02:25:11;;;;;;;13.23;8.23;;;9.70;99.90;;;;;;5177550;27;20039;-65
2022/04/19 02:27:39;;;;;;;14.80;8.63;;;10.20;99.90;;;;;;5177526;27;20113;-65
2022/04/19 02:30:07;;;;;;;14.27;8.98;;;9.50;99.90;;;;;;5177016;27;20069;-65
2022/04/19 02:32:33;;;;;;;12.05;8.25;;;8.70;99.90;;;;;;5177401;27;20081;-65
2022/04/19 02:34:59;;;;;;;13.85;8.30;;;9.30;99.90;;;;;;5177345;27;20089;-65
2022/04/19 02:37:25;;;;;;;17.02;8.65;;;9.50;99.90;;;;;;5177352;27;20053;-65
2022/04/19 02:39:51;;;;;;;15.23;8.75;;;9.80;99.90;;;;;;5177358;27;20382;-65
2022/04/19 02:42:17;;;;;;;11.95;7.70;;;8.80;99.90;;;;;;5176917;27;20050;-65
2022/04/19 02:44:43;;;;;;;13.68;7.88;;;8.50;99.90;;;;;;5176795;27;20494;-65
2022/04/19 02:47:09;;;;;;;14.52;8.07;;;8.90;99.90;;;;;;5177104;27;20040;-64
2022/04/19 02:49:36;;;;;;;13.82;8.10;;;10.00;99.90;;;;;;5176981;27;20371;-64
2022/04/19 02:52:03;;;;;;;13.52;8.57;;;9.70;99.90;;;;;;5176964;27;20053;-65
2022/04/19 02:54:29;;;;;;;13.90;7.88;;;8.30;99.90;;;;;;5176862;27;20057;-64
2022/04/19 02:56:54;;;;;;;13.43;8.43;;;8.70;99.90;;;;;;5176887;27;20042;-65
2022/04/19 02:59:20;;;;;;;14.85;8.73;;;9.50;99.90;;;;;;5176868;27;20048;-65
2022/04/19 03:01:46;;;;;;;16.10;8.73;;;8.70;99.90;;;;;;5176815;27;20046;-65
2022/04/19 03:04:11;;;;;;;13.45;8.45;;;8.50;99.90;;;;;;5176742;27;20081;-65
2022/04/19 03:06:37;;;;;;;11.15;8.00;;;8.30;99.90;;;;;;5176680;27;20050;-66
2022/04/19 03:09:03;;;;;;;12.82;8.65;;;8.50;99.90;;;;;;5176572;27;20038;-65
2022/04/19 03:11:28;;;;;;;12.98;8.07;;;8.40;99.90;;;;;;5176563;27;20043;-66
2022/04/19 03:13:55;;;;;;;13.43;8.55;;;7.50;99.90;;;;;;5175669;27;20046;-64
2022/04/19 03:16:21;;;;;;;14.32;9.05;;;8.00;99.90;;;;;;5176581;27;20085;-64
2022/04/19 03:18:47;;;;;;;13.23;8.85;;;8.40;99.90;;;;;;5176494;27;20057;-64
2022/04/19 03:21:14;;;;;;;14.73;8.50;;;8.20;99.90;;;;;;5176484;27;20095;-65
2022/04/19 03:29:10;;;;;;;13.23;8.45;;;8.20;99.90;;;;;;5176206;27;20396;-64
2022/04/19 03:31:36;;;;;;;13.20;8.85;;;8.00;99.90;;;;;;5157107;27;20089;-64
2022/04/19 03:34:03;;;;;;;13.15;9.25;;;7.80;99.90;;;;;;5176180;27;20038;-65
2022/04/19 03:36:29;;;;;;;13.70;9.23;;;8.30;99.90;;;;;;5175819;27;20519;-65
2022/04/19 03:38:55;;;;;;;13.40;9.23;;;8.40;99.90;;;;;;5176114;27;20046;-65
2022/04/19 03:41:21;;;;;;;12.07;8.90;;;7.30;99.90;;;;;;5176105;27;20096;-65
2022/04/19 03:43:47;;;;;;;12.93;8.90;;;7.60;99.90;;;;;;5176054;27;20053;-64
2022/04/19 03:46:13;;;;;;;14.20;9.13;;;7.80;99.90;;;;;;5157464;27;20398;-65
2022/04/19 03:48:39;;;;;;;15.23;9.82;;;7.80;99.90;;;;;;5140184;27;20057;-65
2022/04/19 03:51:05;;;;;;;16.10;10.13;;;7.60;99.90;;;;;;5157119;27;20081;-65
2022/04/19 03:53:31;;;;;;;14.55;9.60;;;7.30;99.90;;;;;;5175888;27;20049;-65
2022/04/19 03:55:58;;;;;;;13.52;9.07;;;7.70;99.90;;;;;;5157379;27;20042;-64
2022/04/19 03:58:27;;;;;;;14.18;9.43;;;8.60;99.90;;;;;;5175431;27;20511;-65
2022/04/19 04:00:56;;;;;;;16.95;9.80;;;7.60;99.90;;;;;;5175687;27;20042;-66
2022/04/19 04:03:23;;;;;;;13.15;8.98;;;7.70;99.90;;;;;;5175683;27;20049;-65
2022/04/19 04:05:49;;;;;;;13.70;9.20;;;7.90;99.90;;;;;;5156950;27;20050;-67
2022/04/19 04:08:14;;;;;;;13.38;9.00;;;8.00;99.90;;;;;;5175559;27;20060;-65
2022/04/19 04:10:40;;;;;;;17.55;9.77;;;9.00;99.90;;;;;;5175438;27;20049;-65
2022/04/19 04:13:06;;;;;;;14.32;9.70;;;8.10;99.90;;;;;;5175468;27;20053;-65
2022/04/19 04:15:32;;;;;;;16.00;9.48;;;7.50;99.90;;;;;;5175479;27;20042;-65
2022/04/19 04:17:57;;;;;;;14.75;9.20;;;8.60;99.90;;;;;;5156810;27;20046;-65
2022/04/19 04:20:23;;;;;;;16.27;9.68;;;7.50;99.90;;;;;;5139772;27;20454;-66
2022/04/19 04:22:48;;;;;;;12.77;8.98;;;8.10;99.90;;;;;;5175355;27;20106;-65
2022/04/19 04:25:14;;;;;;;16.45;9.55;;;8.20;99.90;;;;;;5175137;27;20052;-65
2022/04/19 04:27:40;;;;;;;16.35;9.73;;;7.80;99.90;;;;;;5175299;27;20060;-65
2022/04/19 04:30:06;;;;;;;15.68;9.60;;;7.80;99.90;;;;;;5156310;27;20406;-65
2022/04/19 04:32:32;;;;;;;14.25;9.48;;;7.70;99.90;;;;;;5175294;27;20046;-65
2022/04/19 04:34:58;;;;;;;16.33;10.07;;;8.40;99.90;;;;;;5175327;27;20082;-66
2022/04/19 04:37:24;;;;;;;18.05;9.93;;;7.40;99.90;;;;;;5175298;27;20097;-64
2022/04/19 04:39:50;;;;;;;15.88;9.63;;;7.70;99.90;;;;;;5175474;27;20048;-65
2022/04/19 04:42:16;;;;;;;16.73;9.63;;;7.80;99.90;;;;;;5175152;27;20385;-65
2022/04/19 04:44:42;;;;;;;16.50;9.35;;;7.50;99.90;;;;;;5175068;27;20042;-65
2022/04/19 04:49:52;;;;;;;15.38;9.20;;;7.30;99.90;;;;;;5175074;27;20046;-65
2022/04/19 04:52:21;;;;;;;16.60;10.15;;;7.40;99.90;;;;;;5175047;27;20362;-65
2022/04/19 04:54:46;;;;;;;16.75;10.90;;;7.40;99.90;;;;;;5175050;27;20045;-65
2022/04/19 04:57:12;;;;;;;19.63;10.50;;;7.40;99.90;;;;;;5175383;27;20470;-65
2022/04/19 04:59:38;;;;;;;15.77;10.05;;;7.60;99.90;;;;;;5175026;27;20034;-65
2022/04/19 05:02:04;;;;;;;16.23;10.32;;;8.50;99.90;;;;;;5175260;27;20049;-66
2022/04/19 05:04:32;;;;;;;15.02;9.95;;;7.60;99.90;;;;;;5174947;27;20065;-65
2022/04/19 05:06:58;;;;;;;19.13;11.13;;;7.40;99.90;;;;;;5156510;27;20057;-64
2022/04/19 05:09:24;;;;;;;19.27;10.70;;;7.40;99.90;;;;;;5174874;27;20046;-65
2022/04/19 05:11:52;;;;;;;15.85;10.00;;;7.90;99.90;;;;;;5174599;27;20504;-65
2022/04/19 05:14:19;;;;;;;18.27;10.30;;;7.40;99.90;;;;;;5174527;27;20474;-65
2022/04/19 05:16:45;;;;;;;18.20;10.52;;;7.80;99.90;;;;;;5174486;27;20557;-65
2022/04/19 05:19:11;;;;;;;16.58;10.90;;;7.70;99.90;;;;;;5174826;27;20050;-65
2022/04/19 05:21:37;;;;;;;19.23;10.68;;;7.60;99.90;;;;;;5174740;27;20091;-64
2022/04/19 05:24:06;;;;;;;;;;;8.00;99.90;;;;;;5175199;27;20121;-64
2022/04/19 05:26:32;;;;;;;17.15;10.65;;;7.70;99.90;;;;;;5174685;27;19970;-65
2022/04/19 05:28:58;;;;;;;15.40;9.75;;;8.60;99.90;;;;;;5138784;27;20054;-65
2022/04/19 05:31:24;;;;;;;19.55;10.55;;;7.80;99.90;;;;;;5174346;27;20068;-67
2022/04/19 05:33:50;;;;;;;;;;;9.30;99.90;;;;;;5156622;27;20078;-65
2022/04/19 05:36:16;;;;;;;16.73;9.80;;;8.00;99.90;;;;;;5174674;27;20364;-65
2022/04/19 05:38:42;;;;;;;18.60;10.88;;;8.00;99.90;;;;;;5178251;27;20042;-65
2022/04/19 05:41:08;;;;;;;17.25;10.93;;;8.80;99.90;;;;;;5173078;27;20053;-65
2022/04/19 05:43:33;;;;;;;16.58;11.27;;;8.80;99.90;;;;;;5199464;27;20042;-65
2022/04/19 05:45:59;;;;;;;20.30;11.02;;;9.40;99.90;;;;;;5152048;27;20110;-66
2022/04/19 05:48:25;;;;;;;17.33;10.60;;;6.20;99.90;;;;;;5178227;27;20050;-65
2022/04/19 05:50:51;;;;;;;;;;;8.10;99.90;;;;;;5159954;27;20038;-65
2022/04/19 05:53:17;;;;;;;17.02;10.15;;;8.30;99.90;;;;;;5174409;27;19937;-65
2022/04/19 05:55:43;;;;;;;15.88;10.32;;;8.50;99.90;;;;;;5193890;27;20442;-64
2022/04/19 05:58:09;;;;;;;21.00;10.07;;;8.80;99.90;;;;;;5163382;27;20133;-66
2022/04/19 06:00:35;;;;;;;16.67;10.63;;;9.40;99.90;;;;;;5189448;27;20493;-66
2022/04/19 06:05:45;;;;;;;21.27;10.77;;;9.20;99.90;;;;;;5183084;27;20087;-66
2022/04/19 06:08:10;;;;;;;15.75;10.02;;;8.70;99.90;;;;;;5174925;27;20042;-69
2022/04/19 06:10:36;;;;;;;15.68;10.10;;;9.60;99.90;;;;;;5175336;27;20099;-65
2022/04/19 06:13:02;;;;;;;15.45;10.52;;;8.80;99.90;;;;;;5176410;27;20045;-66
2022/04/19 06:15:27;;;;;;;17.40;9.93;;;9.50;99.90;;;;;;5175656;27;20397;-65
2022/04/19 06:17:53;;;;;;;15.60;10.20;;;9.20;99.90;;;;;;5175925;27;20490;-69
2022/04/19 06:20:19;;;;;;;19.60;10.55;;;9.20;99.90;;;;;;5174978;27;20511;-66
2022/04/19 06:22:44;;;;;;;15.77;10.13;;;10.20;99.90;;;;;;5175792;27;20049;-66
2022/04/19 06:25:11;;;;;;;15.57;9.98;;;9.40;99.90;;;;;;5176038;27;20050;-65
2022/04/19 06:27:37;;;;;;;17.38;10.15;;;9.50;99.90;;;;;;5176166;27;20054;-65
2022/04/19 06:30:04;;;;;;;14.68;10.02;;;10.10;99.90;;;;;;5154592;27;20050;-65
2022/04/19 06:32:30;;;;;;;15.20;8.85;;;9.50;99.90;;;;;;5193454;27;20132;-67
2022/04/19 06:34:55;;;;;;;16.95;9.60;;;9.80;99.90;;;;;;5163700;27;20125;-65
2022/04/19 06:37:22;;;;;;;15.75;10.10;;;10.00;99.90;;;;;;5175330;27;20046;-64
2022/04/19 06:39:48;;;;;;;16.40;10.18;;;9.80;99.90;;;;;;5185577;27;20121;-71
2022/04/19 06:42:16;;;;;;;;;;;9.90;99.90;;;;;;5171438;27;20093;-65
2022/04/19 06:44:42;;;;;;;17.58;9.70;;;9.90;99.90;;;;;;5156690;27;20277;-65
2022/04/19 06:47:08;;;;;;;31.63;10.57;;;10.10;99.90;;;;;;5175721;27;20057;-64
2022/04/19 06:49:34;;;;;;;16.58;10.50;;;10.20;99.90;;;;;;5175059;27;20415;-65
2022/04/19 06:51:59;;;;;;;16.17;10.13;;;10.00;99.90;;;;;;5175697;27;20038;-64
2022/04/19 06:54:25;;;;;;;16.77;9.63;;;11.10;99.90;;;;;;5158314;27;20404;-65
2022/04/19 06:56:51;;;;;;;14.68;9.27;;;11.50;99.90;;;;;;5176896;27;20049;-65
2022/04/19 06:59:17;;;;;;;15.40;10.48;;;10.20;99.90;;;;;;5176894;27;20046;-65
2022/04/19 07:01:43;;;;;;;15.45;9.30;;;10.60;99.90;;;;;;5158475;27;20049;-64
2022/04/19 07:04:10;;;;;;;14.63;8.98;;;11.70;99.90;;;;;;5176793;27;20042;-65
2022/04/19 07:06:36;;;;;;;12.82;7.82;;;11.00;99.90;;;;;;5176743;27;20053;-65
2022/04/19 07:09:02;;;;;;;17.73;8.68;;;11.40;99.90;;;;;;5176633;27;20057;-65
2022/04/19 07:11:28;;;;;;;14.95;8.50;;;11.30;99.90;;;;;;5158209;27;20087;-65
2022/04/19 07:13:54;;;;;;;15.02;8.32;;;11.30;99.90;;;;;;5176621;27;20131;-64
2022/04/19 07:16:20;;;;;;;13.00;8.32;;;12.00;99.90;;;;;;5176514;27;20049;-69
2022/04/19 07:18:45;;;;;;;10.23;7.10;;;11.70;99.90;;;;;;5158083;27;20050;-67
2022/04/19 07:26:45;;;;;;;12.77;7.80;;;12.00;99.90;;;;;;5176364;27;20160;-65
2022/04/19 07:29:18;;;;;;;12.68;8.38;;;12.40;99.90;;;;;;5175971;27;20498;-65
2022/04/19 07:31:46;;;;;;;10.30;7.82;;;12.20;99.90;;;;;;5176507;27;20054;-65
2022/04/19 07:34:13;;;;;;;10.57;7.03;;;12.20;99.90;;;;;;5176229;27;20044;-66
2022/04/19 07:36:40;;;;;;;10.63;7.35;;;12.10;99.90;;;;;;5176142;27;20121;-65
2022/04/19 07:39:11;;;;;;;10.45;7.20;;;12.60;99.90;;;;;;5157543;27;20042;-66
2022/04/19 07:41:37;;;;;;;11.55;7.38;;;13.30;99.90;;;;;;5176004;27;20152;-66
2022/04/19 07:44:04;;;;;;;9.82;7.18;;;12.90;99.90;;;;;;5175985;27;20049;-65
2022/04/19 07:46:31;;;;;;;11.82;7.22;;;12.80;99.90;;;;;;5175992;27;20050;-66
2022/04/19 07:48:57;;;;;;;9.38;6.68;;;13.10;99.90;;;;;;5175875;27;20053;-66
2022/04/19 07:51:24;;;;;;;12.55;7.30;;;13.00;99.90;;;;;;5175514;27;20562;-66
2022/04/19 07:53:50;;;;;;;11.02;6.85;;;13.20;99.90;;;;;;5175862;27;20038;-65
2022/04/19 07:56:16;;;;;;;13.40;7.03;;;13.20;99.90;;;;;;5157238;27;20578;-67
2022/04/19 07:58:43;;;;;;;11.80;7.13;;;13.40;99.90;;;;;;5175750;27;20159;-65
2022/04/19 08:01:12;;;;;;;11.68;6.95;;;13.40;99.90;;;;;;5156678;27;20385;-65
2022/04/19 08:03:38;;;;;;;8.68;5.70;;;13.60;99.90;;;;;;5157017;27;20038;-65
2022/04/19 08:06:04;;;;;;;8.27;5.82;;;13.20;99.90;;;;;;5175629;27;20049;-66
2022/04/19 08:08:29;;;;;;;;;;;13.60;99.90;;;;;;5176043;27;20058;-64
2022/04/19 08:10:55;;;;;;;10.50;6.32;;;13.40;99.90;;;;;;5175482;27;20743;-65
2022/04/19 08:13:21;;;;;;;8.25;5.00;;;13.60;99.90;;;;;;5175487;27;20054;-67
2022/04/19 08:15:46;;;;;;;8.38;3.67;;;13.20;99.90;;;;;;5175561;27;20083;-66
2022/04/19 08:18:16;;;;;;;6.60;3.20;;;13.50;99.90;;;;;;5175192;27;20042;-67
2022/04/19 08:20:42;;;;;;;4.57;3.13;;;13.80;99.90;;;;;;5175455;27;20086;-67
2022/04/19 08:23:09;;;;;;;4.75;2.88;;;13.90;99.90;;;;;;5156875;27;20489;-70
2022/04/19 08:25:35;;;;;;;;;;;15.00;99.90;;;;;;5175848;27;20042;-66
2022/04/19 08:28:01;;;;;;;4.65;2.80;;;14.00;99.90;;;;;;5175313;27;20267;-66
2022/04/19 08:30:26;;;;;;;4.78;2.60;;;14.20;99.90;;;;;;5175148;27;20065;-68
2022/04/19 08:32:52;;;;;;;5.60;2.38;;;14.10;99.90;;;;;;5156896;27;20054;-65
2022/04/19 08:35:18;;;;;;;3.95;2.60;;;14.50;99.90;;;;;;5175293;27;20042;-67
2022/04/19 08:37:45;;;;;;;;;;;14.40;99.90;;;;;;5157110;27;20053;-65
2022/04/19 08:40:12;;;;;;;3.38;2.58;;;15.30;99.90;;;;;;5175203;27;19926;-65
2022/04/19 08:42:40;;;;;;;3.60;2.60;;;13.90;99.90;;;;;;5175275;27;20045;-65
2022/04/19 08:45:07;;;;;;;4.63;3.05;;;14.40;99.90;;;;;;5175102;27;20453;-66
2022/04/19 08:47:40;;;;;;;2.88;2.30;;;14.50;99.90;;;;;;5174977;27;20064;-67
2022/04/19 08:50:09;;;;;;;3.20;2.13;;;14.40;99.90;;;;;;5175073;27;20046;-67
2022/04/19 08:52:35;;;;;;;4.47;2.38;;;14.90;99.90;;;;;;5175102;27;20038;-65
2022/04/19 08:57:45;;;;;;;3.83;2.50;;;15.00;99.90;;;;;;5175178;27;20069;-67
2022/04/19 09:00:12;;;;;;;2.72;2.10;;;14.80;99.20;;;;;;5156506;27;20477;-66
2022/04/19 09:02:38;;;;;;;3.65;2.30;;;14.80;99.90;;;;;;5175049;27;20121;-70
2022/04/19 09:05:21;;;;;;;;;;;14.80;99.90;;;;;;5156815;27;20085;-67
2022/04/19 09:07:49;;;;;;;2.80;1.98;;;14.70;99.90;;;;;;5174948;27;20000;-66
2022/04/19 09:10:35;;;;;;;2.20;1.70;;;15.10;99.90;;;;;;5174749;27;20043;-65
2022/04/19 09:13:09;;;;;;;3.03;1.90;;;14.90;99.90;;;;;;5141918;27;20133;-66
2022/04/19 09:15:43;;;;;;;2.13;1.83;;;15.10;99.90;;;;;;5179003;27;20275;-65
2022/04/19 09:18:21;;;;;;;3.75;2.10;;;15.50;99.90;;;;;;5179032;27;20038;-66
2022/04/19 09:20:53;;;;;;;4.38;2.30;;;15.40;99.90;;;;;;5178952;27;20389;-65
2022/04/19 09:23:19;;;;;;;2.85;2.22;;;15.50;99.90;;;;;;5178828;27;20050;-66
2022/04/19 09:25:46;;;;;;;4.05;2.53;;;15.60;99.90;;;;;;5178826;27;20038;-67
2022/04/19 09:28:18;;;;;;;;;;;15.60;99.90;;;;;;5179218;27;20552;-66
2022/04/19 09:30:45;;;;;;;3.95;2.85;;;15.60;99.90;;;;;;5178433;27;19922;-66
2022/04/19 09:33:16;;;;;;;4.45;2.67;;;15.60;99.90;;;;;;5178636;27;20101;-67
2022/04/19 09:35:44;;;;;;;3.20;2.50;;;15.70;99.90;;;;;;5178718;27;20121;-67
2022/04/19 09:38:12;;;;;;;3.95;2.92;;;15.70;99.90;;;;;;5178594;27;20053;-67
2022/04/19 09:40:48;;;;;;;34.83;3.55;;;15.90;99.90;;;;;;5178357;27;20405;-68
2022/04/19 09:43:21;;;;;;;5.70;2.72;;;15.60;99.90;;;;;;5178073;27;20482;-64
2022/04/19 09:45:56;;;;;;;3.28;2.88;;;16.00;99.90;;;;;;5178767;27;20057;-71
2022/04/19 09:48:40;;;;;;;3.22;2.70;;;15.90;99.90;;;;;;5178414;27;20061;-67
2022/04/19 09:51:09;;;;;;;3.50;3.20;;;15.80;99.90;;;;;;5176315;27;20113;-67
2022/04/19 09:53:46;;;;;;;4.30;3.10;;;15.70;99.90;;;;;;5178217;27;20130;-65
2022/04/19 09:56:20;;;;;;;5.32;2.85;;;15.80;99.90;;;;;;5159556;27;20050;-65
2022/04/19 09:58:48;;;;;;;4.03;2.97;;;16.10;99.90;;;;;;5159551;27;20481;-65
2022/04/19 10:09:37;;;;;;;6.85;3.65;;;16.30;99.90;;;;;;5177878;27;20126;-65
2022/04/19 10:12:06;;;;;;;3.60;3.25;;;16.40;99.90;;;;;;5177915;27;20050;-66
2022/04/19 10:14:33;;;;;;;5.28;3.35;;;16.00;99.90;;;;;;5177879;27;20046;-66
2022/04/19 10:16:59;;;;;;;4.88;3.72;;;16.60;99.90;;;;;;5177800;27;20093;-66
2022/04/19 10:19:27;;;;;;;8.30;3.15;;;16.30;99.90;;;;;;5177775;27;20050;-69
2022/04/19 10:21:53;;;;;;;5.05;3.17;;;16.50;99.90;;;;;;5158973;27;20046;-66
2022/04/19 10:24:19;;;;;;;4.45;3.38;;;16.20;99.90;;;;;;5177245;27;20073;-65
2022/04/19 10:26:46;;;;;;;;;;;16.30;99.90;;;;;;5159496;27;20057;-65
2022/04/19 10:29:19;;;;;;;4.83;4.00;;;16.60;99.90;;;;;;5177523;27;19925;-65
2022/04/19 10:32:07;;;;;;;5.85;3.20;;;16.10;99.90;;;;;;5177360;27;20137;-71
2022/04/19 10:34:39;;;;;;;6.32;3.15;;;16.60;98.10;;;;;;5159131;27;20485;-65
2022/04/19 10:37:26;;;;;;;6.60;3.45;;;16.80;98.70;;;;;;5158825;27;20077;-65
2022/04/19 10:39:58;;;;;;;4.45;3.17;;;16.40;98.70;;;;;;5158991;27;20129;-67
2022/04/19 10:42:37;;;;;;;4.18;3.00;;;16.20;98.60;;;;;;5177260;27;20061;-67
2022/04/19 10:45:12;;;;;;;5.43;3.00;;;16.80;98.70;;;;;;5177304;27;20042;-65
2022/04/19 10:47:53;;;;;;;4.10;3.30;;;16.60;99.60;;;;;;5177241;27;20085;-68
2022/04/19 10:50:33;;;;;;;8.63;3.40;;;17.00;99.50;;;;;;5177117;27;20129;-66
2022/04/19 10:53:12;;;;;;;4.38;2.85;;;16.90;99.90;;;;;;5177137;27;20133;-65
2022/04/19 10:55:41;;;;;;;4.45;3.55;;;16.90;97.40;;;;;;5177077;27;20046;-66
2022/04/19 10:58:17;;;;;;;5.95;3.17;;;17.30;98.70;;;;;;5158315;27;20042;-69
2022/04/19 11:00:53;;;;;;;5.32;3.25;;;17.30;97.70;;;;;;5177345;27;20096;-67
2022/04/19 11:03:44;;;;;;;4.13;2.97;;;17.20;96.60;;;;;;5176978;27;20125;-67
2022/04/19 11:06:31;;;;;;;4.45;3.00;;;17.40;98.40;;;;;;5176910;27;20113;-67
2022/04/19 11:09:22;;;;;;;5.18;3.28;;;17.30;96.90;;;;;;5158151;27;20126;-67
2022/04/19 11:11:56;;;;;;;4.13;3.15;;;17.40;97.90;;;;;;5176756;27;20042;-64
2022/04/19 11:14:41;;;;;;;5.07;3.60;;;17.50;96.40;;;;;;5176777;27;20064;-65
2022/04/19 11:17:29;;;;;;;5.28;3.90;;;17.40;97.20;;;;;;5176584;27;20056;-65
2022/04/19 11:20:14;;;;;;;3.30;2.97;;;17.50;97.80;;;;;;5176557;27;20528;-66
2022/04/19 11:22:49;;;;;;;4.88;3.20;;;17.60;95.70;;;;;;5176579;27;20082;-65
2022/04/19 11:25:15;;;;;;;4.85;3.42;;;17.70;97.00;;;;;;5176503;27;20465;-66
2022/04/19 11:27:53;;;;;;;4.70;3.45;;;17.70;95.90;;;;;;5157778;27;20042;-66
2022/04/19 11:30:25;;;;;;;5.00;3.03;;;17.80;95.00;;;;;;5175965;27;20085;-66
2022/04/19 11:32:53;;;;;;;6.35;3.05;;;17.70;94.70;;;;;;5157860;27;20058;-66
2022/04/19 11:35:20;;;;;;;3.13;2.78;;;17.70;94.00;;;;;;5175530;27;20046;-67
2022/04/19 11:37:46;;;;;;;7.50;2.78;;;17.50;93.20;;;;;;5176209;27;20106;-65
2022/04/19 11:48:44;;;;;;;4.00;2.75;;;17.70;92.80;;;;;;5176014;27;20056;-66
2022/04/19 11:51:12;;;;;;;6.53;3.30;;;17.70;94.00;;;;;;5175941;27;20082;-66
2022/04/19 11:53:38;;;;;;;4.93;3.10;;;17.60;93.80;;;;;;5175908;27;20041;-66
2022/04/19 11:56:06;;;;;;;3.65;3.20;;;17.80;94.10;;;;;;5175902;27;20046;-66
2022/04/19 11:58:33;;;;;;;5.93;3.05;;;18.10;94.50;;;;;;5175768;27;20481;-65
2022/04/19 12:01:06;;;;;;;5.63;2.67;;;18.20;93.20;;;;;;5175721;27;20084;-67
2022/04/19 12:03:37;;;;;;;5.13;3.33;;;17.70;92.90;;;;;;5175816;27;20046;-66
2022/04/19 12:06:11;;;;;;;7.05;3.10;;;18.10;92.80;;;;;;5157123;27;20077;-64
2022/04/19 12:08:39;;;;;;;4.25;3.17;;;18.20;93.60;;;;;;5157348;27;20054;-65
2022/04/19 12:11:11;;;;;;;4.20;3.80;;;18.20;93.30;;;;;;5175849;27;20102;-65
2022/04/19 12:13:37;;;;;;;3.72;3.00;;;18.00;91.90;;;;;;5157235;27;20049;-66
2022/04/19 12:16:06;;;;;;;4.90;3.35;;;18.20;92.90;;;;;;5175517;27;20050;-65
2022/04/19 12:18:34;;;;;;;5.63;3.22;;;18.00;93.60;;;;;;5175529;27;20065;-64
2022/04/19 12:21:00;;;;;;;4.15;2.95;;;18.40;93.60;;;;;;5175516;27;20049;-66
2022/04/19 12:23:26;;;;;;;5.35;3.00;;;18.20;93.10;;;;;;5175492;27;20038;-66
2022/04/19 12:26:03;;;;;;;5.20;3.33;;;18.30;93.50;;;;;;5175536;27;20052;-65
2022/04/19 12:28:38;;;;;;;6.80;3.08;;;18.50;92.40;;;;;;5175456;27;20435;-65
2022/04/19 12:31:04;;;;;;;4.10;3.08;;;18.40;91.20;;;;;;5174865;27;20137;-65
2022/04/19 12:33:30;;;;;;;4.53;3.45;;;18.50;93.20;;;;;;5175334;27;20046;-66
2022/04/19 12:35:56;;;;;;;5.53;3.80;;;18.50;93.10;;;;;;5139579;27;20042;-69
2022/04/19 12:38:31;;;;;;;9.70;4.45;;;18.30;92.20;;;;;;5175672;27;20038;-64
2022/04/19 12:40:58;;;;;;;5.90;3.60;;;18.60;92.10;;;;;;5185320;27;20452;-66
2022/04/19 12:43:42;;;;;;;5.22;3.72;;;18.70;92.80;;;;;;5195892;27;20045;-66
2022/04/19 12:46:07;;;;;;;6.93;4.00;;;18.60;90.40;;;;;;5196855;27;20041;-63
2022/04/19 12:48:33;;;;;;;5.43;3.45;;;18.50;92.60;;;;;;5200024;27;20053;-65
2022/04/19 12:51:04;;;;;;;5.15;3.70;;;18.90;92.70;;;;;;5159757;27;20065;-71
2022/04/19 12:53:30;;;;;;;7.18;4.18;;;18.90;93.10;;;;;;5195118;27;20093;-66
2022/04/19 12:55:55;;;;;;;9.70;3.70;;;18.70;92.40;;;;;;5167703;27;20090;-65
2022/04/19 12:58:21;;;;;;;6.00;4.13;;;18.60;91.50;;;;;;5176996;27;20104;-65
2022/04/19 13:00:47;;;;;;;4.07;3.10;;;18.60;91.40;;;;;;5193813;27;20073;-66
2022/04/19 13:03:14;;;;;;;4.20;3.03;;;19.10;91.40;;;;;;5176132;27;20050;-69
2022/04/19 13:13:57;;;;;;;5.50;3.75;;;18.90;92.20;;;;;;5184281;27;20061;-66
2022/04/19 13:16:23;;;;;;;11.93;4.82;;;18.60;94.20;;;;;;5200064;27;20042;-66
2022/04/19 13:18:49;;;;;;;6.72;4.10;;;18.60;95.90;;;;;;5200067;27;20117;-68
2022/04/19 13:21:15;;;;;;;7.45;4.03;;;18.70;95.80;;;;;;5163799;27;20136;-68
2022/04/19 13:23:40;;;;;;;8.48;3.92;;;18.50;95.20;;;;;;5199922;27;20109;-66
2022/04/19 13:26:06;;;;;;;6.68;4.38;;;18.50;95.80;;;;;;5199865;27;20197;-68
2022/04/19 13:28:32;;;;;;;8.02;4.53;;;18.50;95.90;;;;;;5163936;27;20477;-69
2022/04/19 13:30:57;;;;;;;10.95;5.13;;;18.60;97.90;;;;;;5199720;27;20061;-64
2022/04/19 13:33:23;;;;;;;7.82;4.95;;;18.10;97.60;;;;;;5199764;27;20393;-64
2022/04/19 13:35:49;;;;;;;7.22;4.95;;;18.10;98.40;;;;;;5199710;27;20128;-65
2022/04/19 13:38:23;;;;;;;7.93;5.38;;;18.10;98.00;;;;;;5183296;27;20152;-67